Time;durP1;ratioP1;P1;durP2;ratioP2;P2;SDS_P1;SDS_P2;PMS_P1;PMS_P2;Temp;Humidity;BMP_temperature;BMP_pressure;BME280_temperature;BME280_humidity;BME280_pressure;Samples;Min_cycle;Max_cycle;Signal;HPM_P1;HPM_P2
2023/04/15 00:00:45;;;;;;;;;;;19.10;40.50;;;;;;5041428;28;20363;-58
2023/04/15 00:03:12;;;;;;;;;;;19.10;40.60;;;;;;5059367;28;19933;-58
2023/04/15 00:05:39;;;;;;;;;;;19.10;40.60;;;;;;5041722;28;19943;-57
2023/04/15 00:08:07;;;;;;;;;;;19.10;40.50;;;;;;5037951;28;19928;-56
2023/04/15 00:10:34;;;;;;;;;;;19.10;40.60;;;;;;5042227;28;19931;-55
2023/04/15 00:13:00;;;;;;;;;;;19.10;40.50;;;;;;5042089;28;19964;-54
2023/04/15 00:15:27;;;;;;;;;;;19.10;40.60;;;;;;5040266;28;19975;-57
2023/04/15 00:17:54;;;;;;;;;;;19.10;40.60;;;;;;5042036;28;19921;-58
2023/04/15 00:20:21;;;;;;;;;;;19.10;40.60;;;;;;5041582;28;19943;-54
2023/04/15 00:22:48;;;;;;;;;;;19.10;40.60;;;;;;5041082;28;19920;-57
2023/04/15 00:25:16;;;;;;;;;;;19.10;40.60;;;;;;5040275;28;20362;-51
2023/04/15 00:27:43;;;;;;;;;;;19.10;40.60;;;;;;5027409;28;20027;-57
2023/04/15 00:30:10;;;;;;;;;;;19.10;40.70;;;;;;5043774;28;20011;-57
2023/04/15 00:32:37;;;;;;;;;;;19.00;40.60;;;;;;5041357;28;20406;-53
2023/04/15 00:35:04;;;;;;;;;;;19.00;40.60;;;;;;5057686;28;19924;-57
2023/04/15 00:37:31;;;;;;;;;;;19.10;40.70;;;;;;5045045;28;19986;-58
2023/04/15 00:39:58;;;;;;;;;;;19.10;40.80;;;;;;5043672;28;19964;-57
2023/04/15 00:42:26;;;;;;;;;;;19.00;40.70;;;;;;5043144;28;19978;-59
2023/04/15 00:44:53;;;;;;;;;;;19.10;40.80;;;;;;5056355;28;20020;-58
2023/04/15 00:47:20;;;;;;;;;;;19.00;40.70;;;;;;5059093;28;20381;-56
2023/04/15 00:49:47;;;;;;;;;;;19.10;40.80;;;;;;5059325;28;19924;-57
2023/04/15 00:52:13;;;;;;;;;;;19.00;40.80;;;;;;5044573;28;20425;-57
2023/04/15 00:54:40;;;;;;;;;;;19.00;40.80;;;;;;5041804;28;19920;-58
2023/04/15 00:57:07;;;;;;;;;;;19.00;40.80;;;;;;5037025;28;19931;-57
2023/04/15 00:59:35;;;;;;;;;;;19.00;40.80;;;;;;5040870;28;19932;-58
2023/04/15 01:02:02;;;;;;;;;;;19.00;40.90;;;;;;5041840;28;19939;-58
2023/04/15 01:04:29;;;;;;;;;;;19.00;40.90;;;;;;5039782;28;19970;-57
2023/04/15 01:06:56;;;;;;;;;;;19.00;40.90;;;;;;5040972;28;19931;-58
2023/04/15 01:09:23;;;;;;;;;;;19.00;40.90;;;;;;5040009;28;19925;-53
2023/04/15 01:11:49;;;;;;;;;;;19.00;40.90;;;;;;5061069;28;19925;-57
2023/04/15 01:14:16;;;;;;;;;;;19.00;41.00;;;;;;5037616;28;19976;-54
2023/04/15 01:16:44;;;;;;;;;;;18.90;40.90;;;;;;5052122;28;19936;-55
2023/04/15 01:19:12;;;;;;;;;;;18.90;40.90;;;;;;5037473;28;19925;-57
2023/04/15 01:21:39;;;;;;;;;;;19.00;41.00;;;;;;5037473;28;19928;-57
2023/04/15 01:24:08;;;;;;;;;;;18.90;41.00;;;;;;5060912;28;19986;-58
2023/04/15 01:26:37;;;;;;;;;;;18.90;41.10;;;;;;5039235;28;19925;-54
2023/04/15 01:29:03;;;;;;;;;;;18.90;41.00;;;;;;5043284;28;19951;-58
2023/04/15 01:31:30;;;;;;;;;;;18.90;41.00;;;;;;5057018;28;19921;-58
2023/04/15 01:33:57;;;;;;;;;;;18.90;41.10;;;;;;5041975;28;20237;-57
2023/04/15 01:36:24;;;;;;;;;;;18.90;41.10;;;;;;5038408;28;20413;-58
2023/04/15 01:38:51;;;;;;;;;;;18.90;41.10;;;;;;5037569;28;19927;-58
2023/04/15 01:41:22;;;;;;;;;;;18.90;41.10;;;;;;5059511;28;19921;-56
2023/04/15 01:43:51;;;;;;;;;;;18.90;41.10;;;;;;5043765;28;19920;-56
2023/04/15 01:46:18;;;;;;;;;;;18.90;41.20;;;;;;5061252;28;19931;-57
2023/04/15 01:48:45;;;;;;;;;;;18.90;41.20;;;;;;5058729;28;19965;-58
2023/04/15 01:51:11;;;;;;;;;;;18.90;41.30;;;;;;5055185;28;19940;-56
2023/04/15 01:53:38;;;;;;;;;;;18.90;41.20;;;;;;5040723;28;19928;-57
2023/04/15 01:56:06;;;;;;;;;;;18.90;41.30;;;;;;5058252;28;19939;-54
2023/04/15 01:58:32;;;;;;;;;;;18.90;41.30;;;;;;5035822;28;19935;-57
2023/04/15 02:01:01;;;;;;;;;;;18.90;41.40;;;;;;5059878;28;19978;-57
2023/04/15 02:03:28;;;;;;;;;;;18.80;41.90;;;;;;5041950;28;19924;-54
2023/04/15 02:05:55;;;;;;;;;;;18.90;41.40;;;;;;5035753;28;19920;-55
2023/04/15 02:08:22;;;;;;;;;;;18.80;41.40;;;;;;5043367;28;20032;-51
2023/04/15 02:10:49;;;;;;;;;;;18.80;41.30;;;;;;5037687;28;19928;-57
2023/04/15 02:13:15;;;;;;;;;;;18.80;41.30;;;;;;5040523;28;19924;-55
2023/04/15 02:15:46;;;;;;;;;;;18.80;41.40;;;;;;5036601;28;19924;-57
2023/04/15 02:18:14;;;;;;;;;;;18.80;41.30;;;;;;5050730;28;20329;-56
2023/04/15 02:20:42;;;;;;;;;;;18.80;41.40;;;;;;5040283;28;19920;-57
2023/04/15 02:23:10;;;;;;;;;;;18.80;41.40;;;;;;5054284;28;19966;-57
2023/04/15 02:25:37;;;;;;;;;;;18.80;41.50;;;;;;5038754;28;20019;-56
2023/04/15 02:28:05;;;;;;;;;;;18.80;41.40;;;;;;5039548;28;19924;-55
2023/04/15 02:30:31;;;;;;;;;;;18.80;41.50;;;;;;5041690;28;19920;-57
2023/04/15 02:32:58;;;;;;;;;;;18.80;41.50;;;;;;5059546;28;19967;-57
2023/04/15 02:35:27;;;;;;;;;;;18.80;41.50;;;;;;5039313;28;19966;-55
2023/04/15 02:37:53;;;;;;;;;;;18.80;41.50;;;;;;5035971;28;19975;-57
2023/04/15 02:40:20;;;;;;;;;;;18.80;41.60;;;;;;5040969;28;19974;-54
2023/04/15 02:42:47;;;;;;;;;;;18.80;41.60;;;;;;5059579;28;19927;-56
2023/04/15 02:45:14;;;;;;;;;;;18.80;41.60;;;;;;5040213;28;19925;-57
2023/04/15 02:47:42;;;;;;;;;;;18.80;41.60;;;;;;5056861;28;20272;-58
2023/04/15 02:50:11;;;;;;;;;;;18.80;41.60;;;;;;5057581;28;19960;-55
2023/04/15 02:52:40;;;;;;;;;;;18.80;41.60;;;;;;5039923;28;19970;-57
2023/04/15 02:55:08;;;;;;;;;;;18.70;41.60;;;;;;5040051;28;19925;-53
2023/04/15 02:57:36;;;;;;;;;;;18.80;41.70;;;;;;5038337;28;19928;-56
2023/04/15 03:00:03;;;;;;;;;;;18.70;41.70;;;;;;5056666;28;19964;-58
2023/04/15 03:02:33;;;;;;;;;;;18.80;41.70;;;;;;5036745;28;19921;-56
2023/04/15 03:05:00;;;;;;;;;;;18.80;41.70;;;;;;5036582;28;19928;-57
2023/04/15 03:07:27;;;;;;;;;;;18.80;41.70;;;;;;5056657;28;19974;-58
2023/04/15 03:09:55;;;;;;;;;;;18.80;41.70;;;;;;5056421;28;19967;-57
2023/04/15 03:12:21;;;;;;;;;;;18.80;41.70;;;;;;5056829;28;19943;-57
2023/04/15 03:14:49;;;;;;;;;;;18.80;42.40;;;;;;5041027;28;19928;-57
2023/04/15 03:17:16;;;;;;;;;;;18.80;41.80;;;;;;5039882;28;19921;-58
2023/04/15 03:19:42;;;;;;;;;;;18.80;41.80;;;;;;5042987;28;19920;-57
2023/04/15 03:22:09;;;;;;;;;;;18.80;41.80;;;;;;5060727;28;19924;-57
2023/04/15 03:24:36;;;;;;;;;;;18.80;41.80;;;;;;5038938;28;19920;-57
2023/04/15 03:27:05;;;;;;;;;;;18.80;41.90;;;;;;5041368;28;19982;-57
2023/04/15 03:29:32;;;;;;;;;;;18.80;41.90;;;;;;5062747;28;19921;-61
2023/04/15 03:31:58;;;;;;;;;;;18.80;41.90;;;;;;5042491;28;19952;-58
2023/04/15 03:34:25;;;;;;;;;;;18.80;41.90;;;;;;5041862;28;19925;-54
2023/04/15 03:36:52;;;;;;;;;;;18.80;41.90;;;;;;5058629;28;20024;-51
2023/04/15 03:39:19;;;;;;;;;;;18.80;41.90;;;;;;5041558;28;19982;-57
2023/04/15 03:41:45;;;;;;;;;;;18.80;41.90;;;;;;5042094;28;19920;-58
2023/04/15 03:44:13;;;;;;;;;;;18.80;42.00;;;;;;5058903;28;19982;-57
2023/04/15 03:46:41;;;;;;;;;;;18.80;42.00;;;;;;5043676;28;19920;-55
2023/04/15 03:49:07;;;;;;;;;;;18.80;42.00;;;;;;5062683;28;19935;-57
2023/04/15 03:51:35;;;;;;;;;;;18.80;42.00;;;;;;5041453;28;19927;-54
2023/04/15 03:54:02;;;;;;;;;;;18.80;42.00;;;;;;5042741;28;19927;-58
2023/04/15 03:56:28;;;;;;;;;;;18.70;41.90;;;;;;5043712;28;19921;-55
2023/04/15 03:58:55;;;;;;;;;;;18.80;42.00;;;;;;5042512;28;19990;-59
2023/04/15 04:01:23;;;;;;;;;;;18.80;42.10;;;;;;5043512;28;19925;-58
2023/04/15 04:03:51;;;;;;;;;;;18.70;42.00;;;;;;5058864;28;19955;-58
2023/04/15 04:06:17;;;;;;;;;;;18.80;42.00;;;;;;5041438;28;19925;-56
2023/04/15 04:08:44;;;;;;;;;;;18.80;42.10;;;;;;5056900;28;19921;-59
2023/04/15 04:11:11;;;;;;;;;;;18.80;42.10;;;;;;5057228;28;19952;-58
2023/04/15 04:13:38;;;;;;;;;;;18.80;42.20;;;;;;5043358;28;19924;-58
2023/04/15 04:16:04;;;;;;;;;;;18.80;42.20;;;;;;5041308;28;19975;-58
2023/04/15 04:18:33;;;;;;;;;;;18.80;42.20;;;;;;5041221;28;19943;-57
2023/04/15 04:20:59;;;;;;;;;;;18.80;42.20;;;;;;5034652;28;19948;-58
2023/04/15 04:23:26;;;;;;;;;;;18.80;42.20;;;;;;5042413;28;19988;-58
2023/04/15 04:25:53;;;;;;;;;;;18.80;42.20;;;;;;5041438;28;19921;-55
2023/04/15 04:28:20;;;;;;;;;;;18.80;42.20;;;;;;5059197;28;19920;-58
2023/04/15 04:30:47;;;;;;;;;;;18.70;42.20;;;;;;5039687;28;19963;-58
2023/04/15 04:33:13;;;;;;;;;;;18.70;42.20;;;;;;5061681;28;19925;-58
2023/04/15 04:35:42;;;;;;;;;;;18.70;42.20;;;;;;5040622;28;19920;-58
2023/04/15 04:38:08;;;;;;;;;;;18.70;42.10;;;;;;5041240;28;19920;-58
2023/04/15 04:40:35;;;;;;;;;;;18.70;42.20;;;;;;5039951;28;19951;-58
2023/04/15 04:43:02;;;;;;;;;;;18.80;42.20;;;;;;5044554;28;19929;-58
2023/04/15 04:45:29;;;;;;;;;;;18.70;42.20;;;;;;5059319;28;19925;-59
2023/04/15 04:47:56;;;;;;;;;;;18.70;42.30;;;;;;5041011;28;20016;-57
2023/04/15 04:50:23;;;;;;;;;;;18.70;42.30;;;;;;5060729;28;20351;-57
2023/04/15 04:52:51;;;;;;;;;;;18.70;42.30;;;;;;5042748;28;19967;-59
2023/04/15 04:55:18;;;;;;;;;;;18.70;42.30;;;;;;5040106;28;19953;-59
2023/04/15 04:57:45;;;;;;;;;;;18.70;42.30;;;;;;5040880;28;20410;-59
2023/04/15 05:00:12;;;;;;;;;;;18.70;42.40;;;;;;5058558;28;20248;-59
2023/04/15 05:02:41;;;;;;;;;;;18.70;42.40;;;;;;5040152;28;19921;-58
2023/04/15 05:05:08;;;;;;;;;;;18.70;42.40;;;;;;5040752;28;20011;-57
2023/04/15 05:07:35;;;;;;;;;;;18.70;42.40;;;;;;5060783;28;19924;-58
2023/04/15 05:10:03;;;;;;;;;;;18.70;42.40;;;;;;5061149;28;19927;-58
2023/04/15 05:12:31;;;;;;;;;;;18.70;42.40;;;;;;5057892;28;20018;-56
2023/04/15 05:14:57;;;;;;;;;;;18.70;42.50;;;;;;5042776;28;19931;-56
2023/04/15 05:17:24;;;;;;;;;;;18.70;42.50;;;;;;5041015;28;19920;-55
2023/04/15 05:19:52;;;;;;;;;;;18.70;42.50;;;;;;5039542;28;19975;-58
2023/04/15 05:22:19;;;;;;;;;;;18.70;42.50;;;;;;5032047;28;19960;-58
2023/04/15 05:24:45;;;;;;;;;;;18.70;42.50;;;;;;5041787;28;19973;-58
2023/04/15 05:27:14;;;;;;;;;;;18.70;42.60;;;;;;5041489;28;19924;-57
2023/04/15 05:29:41;;;;;;;;;;;18.70;42.60;;;;;;5055328;28;19975;-58
2023/04/15 05:32:08;;;;;;;;;;;18.70;42.60;;;;;;5039113;28;19970;-58
2023/04/15 05:34:34;;;;;;;;;;;18.60;42.50;;;;;;5042769;28;19921;-58
2023/04/15 05:37:01;;;;;;;;;;;18.70;42.70;;;;;;5043233;28;19925;-59
2023/04/15 05:39:28;;;;;;;;;;;18.70;42.70;;;;;;5060498;28;19966;-57
2023/04/15 05:41:54;;;;;;;;;;;18.60;42.60;;;;;;5039219;28;19925;-58
2023/04/15 05:44:23;;;;;;;;;;;18.60;42.60;;;;;;5059213;28;19920;-58
2023/04/15 05:46:49;;;;;;;;;;;18.60;42.70;;;;;;5039844;28;19924;-57
2023/04/15 05:49:18;;;;;;;;;;;18.60;42.70;;;;;;5042167;28;19920;-53
2023/04/15 05:51:45;;;;;;;;;;;18.60;42.70;;;;;;5035885;28;19939;-54
2023/04/15 05:54:12;;;;;;;;;;;18.60;42.70;;;;;;5035910;28;19921;-56
2023/04/15 05:56:38;;;;;;;;;;;18.60;42.70;;;;;;5037686;28;19924;-56
2023/04/15 05:59:06;;;;;;;;;;;18.60;42.80;;;;;;5036555;28;19936;-57
2023/04/15 06:01:34;;;;;;;;;;;18.60;42.80;;;;;;5034878;28;19921;-58
2023/04/15 06:04:01;;;;;;;;;;;18.60;42.90;;;;;;5036626;28;19920;-59
2023/04/15 06:06:28;;;;;;;;;;;18.60;42.90;;;;;;5055992;28;19921;-57
2023/04/15 06:08:56;;;;;;;;;;;18.60;42.90;;;;;;5033015;28;19920;-58
2023/04/15 06:11:22;;;;;;;;;;;18.60;42.80;;;;;;5035628;28;19933;-59
2023/04/15 06:13:49;;;;;;;;;;;18.60;42.80;;;;;;5038246;28;19924;-59
2023/04/15 06:16:16;;;;;;;;;;;18.60;42.80;;;;;;5034520;28;19927;-58
2023/04/15 06:18:44;;;;;;;;;;;18.60;42.90;;;;;;5037283;28;19921;-58
2023/04/15 06:21:11;;;;;;;;;;;18.60;42.90;;;;;;5035085;28;19920;-57
2023/04/15 06:23:39;;;;;;;;;;;18.60;42.90;;;;;;5055394;28;19932;-56
2023/04/15 06:26:06;;;;;;;;;;;18.60;42.90;;;;;;5037777;28;20310;-57
2023/04/15 06:28:33;;;;;;;;;;;18.60;42.90;;;;;;5015875;28;19921;-58
2023/04/15 06:31:00;;;;;;;;;;;18.60;43.00;;;;;;5030578;28;19925;-58
2023/04/15 06:33:27;;;;;;;;;;;18.60;43.00;;;;;;5035918;28;19927;-56
2023/04/15 06:35:55;;;;;;;;;;;18.60;43.00;;;;;;5039866;28;19920;-60
2023/04/15 06:38:22;;;;;;;;;;;18.60;43.00;;;;;;5034754;28;19951;-58
2023/04/15 06:41:08;;;;;;;;;;;18.60;43.00;;;;;;5054751;28;19924;-58
2023/04/15 06:43:40;;;;;;;;;;;18.60;43.00;;;;;;5054319;28;19920;-59
2023/04/15 06:46:07;;;;;;;;;;;18.60;43.00;;;;;;5056282;28;19975;-59
2023/04/15 06:48:33;;;;;;;;;;;18.60;43.10;;;;;;5073456;28;19921;-59
2023/04/15 06:51:02;;;;;;;;;;;18.60;43.10;;;;;;5055482;28;19932;-59
2023/04/15 06:53:29;;;;;;;;;;;18.60;43.20;;;;;;5058881;28;19959;-60
2023/04/15 06:55:56;;;;;;;;;;;18.60;43.20;;;;;;5059444;28;20358;-59
2023/04/15 06:58:22;;;;;;;;;;;18.60;43.20;;;;;;5059226;28;19920;-59
2023/04/15 07:00:49;;;;;;;;;;;18.60;43.20;;;;;;5059670;28;20301;-60
2023/04/15 07:03:16;;;;;;;;;;;18.60;43.20;;;;;;5037759;28;19927;-60
2023/04/15 07:05:43;;;;;;;;;;;18.60;43.20;;;;;;5039206;28;19928;-60
2023/04/15 07:08:11;;;;;;;;;;;18.60;43.30;;;;;;5039489;28;19921;-59
2023/04/15 07:10:38;;;;;;;;;;;18.60;43.20;;;;;;5055047;28;19947;-59
2023/04/15 07:13:07;;;;;;;;;;;18.60;43.30;;;;;;5039018;28;19920;-60
2023/04/15 07:15:34;;;;;;;;;;;18.60;43.40;;;;;;5038999;28;19921;-60
2023/04/15 07:18:01;;;;;;;;;;;18.60;43.30;;;;;;5037499;28;20371;-59
2023/04/15 07:20:27;;;;;;;;;;;18.60;43.40;;;;;;5075384;28;19920;-58
2023/04/15 07:22:54;;;;;;;;;;;18.50;43.30;;;;;;5059489;28;19973;-58
2023/04/15 07:25:22;;;;;;;;;;;18.50;43.30;;;;;;5059544;28;19921;-59
2023/04/15 07:27:49;;;;;;;;;;;18.50;43.40;;;;;;5056828;28;19955;-58
2023/04/15 07:30:16;;;;;;;;;;;18.50;43.30;;;;;;5058637;28;19921;-59
2023/04/15 07:32:43;;;;;;;;;;;18.50;43.40;;;;;;5070852;28;19974;-59
2023/04/15 07:35:10;;;;;;;;;;;18.50;43.40;;;;;;5054644;28;19947;-60
2023/04/15 07:37:37;;;;;;;;;;;18.50;43.40;;;;;;5052315;28;19964;-59
2023/04/15 07:40:06;;;;;;;;;;;18.50;43.30;;;;;;5056281;28;19921;-59
2023/04/15 07:42:34;;;;;;;;;;;18.50;43.40;;;;;;5054924;28;19970;-57
2023/04/15 07:45:00;;;;;;;;;;;18.50;43.40;;;;;;5043773;28;19924;-58
2023/04/15 07:47:27;;;;;;;;;;;18.60;43.50;;;;;;5036375;28;19925;-59
2023/04/15 07:49:54;;;;;;;;;;;18.60;43.40;;;;;;5038091;28;19943;-59
2023/04/15 07:52:21;;;;;;;;;;;18.60;43.40;;;;;;5037957;28;19928;-58
2023/04/15 07:54:47;;;;;;;;;;;18.60;43.40;;;;;;5038978;28;19921;-58
2023/04/15 07:57:15;;;;;;;;;;;18.50;43.40;;;;;;5054252;28;19928;-59
2023/04/15 07:59:43;;;;;;;;;;;18.60;43.40;;;;;;5041997;28;19921;-57
2023/04/15 08:02:10;;;;;;;;;;;18.60;43.40;;;;;;5035291;28;19921;-58
2023/04/15 08:04:38;;;;;;;;;;;18.60;43.40;;;;;;5033684;28;19943;-58
2023/04/15 08:07:04;;;;;;;;;;;18.60;43.40;;;;;;5033441;28;19927;-58
2023/04/15 08:09:31;;;;;;;;;;;18.60;43.50;;;;;;5052264;28;20271;-58
2023/04/15 08:11:58;;;;;;;;;;;18.60;43.50;;;;;;5051076;28;19979;-58
2023/04/15 08:14:25;;;;;;;;;;;18.60;43.50;;;;;;5041993;28;19967;-58
2023/04/15 08:16:53;;;;;;;;;;;18.60;43.50;;;;;;5052446;28;19920;-60
2023/04/15 08:19:20;;;;;;;;;;;18.60;43.50;;;;;;5034793;28;19929;-59
2023/04/15 08:21:47;;;;;;;;;;;18.60;43.50;;;;;;5032141;28;20008;-59
2023/04/15 08:24:14;;;;;;;;;;;18.60;43.50;;;;;;5034661;28;19921;-58
2023/04/15 08:26:41;;;;;;;;;;;18.60;43.60;;;;;;5034465;28;19956;-59
2023/04/15 08:29:07;;;;;;;;;;;18.60;43.60;;;;;;5036001;28;19928;-59
2023/04/15 08:31:34;;;;;;;;;;;18.60;43.50;;;;;;5033780;28;19927;-59
2023/04/15 08:34:02;;;;;;;;;;;18.60;43.60;;;;;;5055178;28;20015;-59
2023/04/15 08:36:29;;;;;;;;;;;18.60;43.60;;;;;;5055209;28;19939;-59
2023/04/15 08:38:56;;;;;;;;;;;18.60;43.60;;;;;;5037017;28;19920;-59
2023/04/15 08:41:23;;;;;;;;;;;18.60;43.80;;;;;;5037445;28;19956;-58
2023/04/15 08:43:52;;;;;;;;;;;18.60;43.80;;;;;;5038094;28;20358;-58
2023/04/15 08:46:19;;;;;;;;;;;18.60;43.70;;;;;;5034581;28;19921;-59
2023/04/15 08:48:46;;;;;;;;;;;18.60;43.70;;;;;;5035340;28;19927;-59
2023/04/15 08:51:15;;;;;;;;;;;18.60;43.70;;;;;;5053418;28;19920;-59
2023/04/15 08:53:41;;;;;;;;;;;18.60;43.80;;;;;;5034423;28;19970;-58
2023/04/15 08:56:09;;;;;;;;;;;18.60;43.80;;;;;;5017932;28;19956;-59
2023/04/15 08:58:35;;;;;;;;;;;18.60;43.80;;;;;;5034956;28;19927;-60
2023/04/15 09:01:02;;;;;;;;;;;18.60;43.70;;;;;;5033526;28;20011;-59
2023/04/15 09:03:29;;;;;;;;;;;18.60;43.70;;;;;;5033245;28;19925;-59
2023/04/15 09:05:56;;;;;;;;;;;18.60;43.60;;;;;;5017034;28;19921;-59
2023/04/15 09:08:24;;;;;;;;;;;18.60;43.80;;;;;;5035004;28;19921;-60
2023/04/15 09:10:51;;;;;;;;;;;18.60;43.90;;;;;;5021225;28;19921;-57
2023/04/15 09:13:18;;;;;;;;;;;18.60;44.00;;;;;;5054502;28;19988;-58
2023/04/15 09:15:45;;;;;;;;;;;18.60;44.00;;;;;;5053388;28;19920;-58
2023/04/15 09:18:12;;;;;;;;;;;18.60;44.00;;;;;;5054063;28;19924;-58
2023/04/15 09:20:39;;;;;;;;;;;18.60;44.00;;;;;;5052212;28;19928;-58
2023/04/15 09:23:11;;;;;;;;;;;18.60;44.00;;;;;;5036401;28;19975;-58
2023/04/15 09:25:41;;;;;;;;;;;18.60;44.00;;;;;;5034937;28;19927;-58
2023/04/15 09:28:08;;;;;;;;;;;18.60;44.00;;;;;;5036832;28;19928;-59
2023/04/15 09:30:34;;;;;;;;;;;18.60;44.00;;;;;;5034820;28;19920;-58
2023/04/15 09:33:03;;;;;;;;;;;18.60;44.00;;;;;;5036223;28;19974;-59
2023/04/15 09:35:30;;;;;;;;;;;18.60;44.10;;;;;;5036523;28;19996;-59
2023/04/15 09:38:01;;;;;;;;;;;18.60;44.10;;;;;;5054366;28;19921;-54
2023/04/15 09:40:32;;;;;;;;;;;18.70;44.30;;;;;;5017149;28;19971;-58
2023/04/15 09:43:01;;;;;;;;;;;18.60;44.20;;;;;;5016837;28;20333;-58
2023/04/15 09:45:28;;;;;;;;;;;18.60;44.20;;;;;;5016496;28;20011;-58
2023/04/15 09:47:55;;;;;;;;;;;18.60;44.20;;;;;;5034117;28;19967;-58
2023/04/15 09:50:22;;;;;;;;;;;18.60;44.30;;;;;;5016095;28;19921;-58
2023/04/15 09:52:48;;;;;;;;;;;18.60;44.30;;;;;;5035724;28;19920;-58
2023/04/15 09:55:15;;;;;;;;;;;18.70;44.40;;;;;;5036729;28;19935;-58
2023/04/15 09:57:43;;;;;;;;;;;18.60;44.30;;;;;;5034020;28;19921;-58
2023/04/15 10:00:11;;;;;;;;;;;18.70;44.40;;;;;;5034164;28;19921;-58
2023/04/15 10:02:39;;;;;;;;;;;18.70;44.40;;;;;;5034224;28;19978;-58
2023/04/15 10:05:06;;;;;;;;;;;18.60;44.30;;;;;;5033960;28;19921;-59
2023/04/15 10:07:34;;;;;;;;;;;18.70;44.40;;;;;;5048778;28;19921;-59
2023/04/15 10:10:01;;;;;;;;;;;18.70;44.40;;;;;;5032907;28;20396;-58
2023/04/15 10:12:28;;;;;;;;;;;18.70;44.50;;;;;;5029037;28;19955;-59
2023/04/15 10:14:56;;;;;;;;;;;18.70;45.00;;;;;;5032614;28;19921;-59
2023/04/15 10:17:24;;;;;;;;;;;18.70;44.40;;;;;;5030621;28;19921;-58
2023/04/15 10:19:51;;;;;;;;;;;18.70;44.30;;;;;;5016873;28;19932;-59
2023/04/15 10:22:18;;;;;;;;;;;18.70;44.30;;;;;;5030447;28;19921;-55
2023/04/15 10:24:46;;;;;;;;;;;18.70;44.40;;;;;;5038259;28;19921;-58
2023/04/15 10:27:12;;;;;;;;;;;18.70;44.40;;;;;;5050096;28;19928;-59
2023/04/15 10:29:39;;;;;;;;;;;18.70;44.50;;;;;;5040690;28;19928;-58
2023/04/15 10:32:06;;;;;;;;;;;18.70;44.50;;;;;;5039871;28;19921;-59
2023/04/15 10:34:34;;;;;;;;;;;18.70;44.60;;;;;;5036427;28;19971;-59
2023/04/15 10:37:02;;;;;;;;;;;18.70;44.60;;;;;;5037069;28;19933;-58
2023/04/15 10:39:38;;;;;;;;;;;18.70;44.60;;;;;;5035006;28;19928;-59
2023/04/15 10:42:08;;;;;;;;;;;18.70;44.60;;;;;;5055102;28;19975;-59
2023/04/15 10:44:36;;;;;;;;;;;18.70;44.70;;;;;;5056103;28;19921;-59
2023/04/15 10:47:05;;;;;;;;;;;18.70;44.70;;;;;;5039126;28;19920;-59
2023/04/15 10:49:31;;;;;;;;;;;18.70;44.80;;;;;;5055180;28;19925;-58
2023/04/15 10:51:59;;;;;;;;;;;18.70;44.80;;;;;;5035917;28;19921;-59
2023/04/15 10:54:31;;;;;;;;;;;18.70;44.70;;;;;;5035686;28;20252;-58
2023/04/15 10:57:06;;;;;;;;;;;18.70;44.70;;;;;;5036279;28;20018;-59
2023/04/15 10:59:34;;;;;;;;;;;18.70;44.70;;;;;;5036098;28;19978;-58
2023/04/15 11:02:01;;;;;;;;;;;18.70;44.70;;;;;;5017964;28;19937;-58
2023/04/15 11:04:46;;;;;;;;;;;18.70;44.70;;;;;;5054785;28;19921;-58
2023/04/15 11:07:14;;;;;;;;;;;18.70;44.70;;;;;;5052160;28;19951;-59
2023/04/15 11:09:41;;;;;;;;;;;18.70;44.70;;;;;;5053833;28;19931;-59
2023/04/15 11:12:09;;;;;;;;;;;18.70;44.70;;;;;;5049990;28;19969;-58
2023/04/15 11:14:38;;;;;;;;;;;18.70;44.70;;;;;;5035958;28;19921;-58
2023/04/15 11:17:05;;;;;;;;;;;18.70;44.70;;;;;;5036628;28;20027;-59
2023/04/15 11:19:38;;;;;;;;;;;18.70;44.70;;;;;;5054484;28;19971;-58
2023/04/15 11:22:08;;;;;;;;;;;18.70;44.70;;;;;;5034348;28;20381;-58
2023/04/15 11:24:36;;;;;;;;;;;18.70;44.50;;;;;;5040863;28;19970;-59
2023/04/15 11:27:03;;;;;;;;;;;18.80;44.60;;;;;;5034895;28;19921;-59
2023/04/15 11:29:31;;;;;;;;;;;18.80;44.50;;;;;;5051269;28;19951;-58
2023/04/15 11:32:08;;;;;;;;;;;18.80;44.40;;;;;;5030860;28;19921;-59
2023/04/15 11:34:35;;;;;;;;;;;18.80;44.30;;;;;;5054656;28;19949;-59
2023/04/15 11:37:03;;;;;;;;;;;18.80;44.20;;;;;;5038562;28;20039;-59
2023/04/15 11:39:30;;;;;;;;;;;18.80;44.20;;;;;;5035378;28;20306;-58
2023/04/15 11:41:58;;;;;;;;;;;18.80;44.10;;;;;;5039134;28;19921;-59
2023/04/15 11:44:25;;;;;;;;;;;18.80;44.10;;;;;;5038943;28;19920;-59
2023/04/15 11:46:52;;;;;;;;;;;18.80;44.10;;;;;;5055965;28;19947;-59
2023/04/15 11:49:28;;;;;;;;;;;18.80;44.00;;;;;;5056256;28;19920;-59
2023/04/15 11:51:55;;;;;;;;;;;18.90;44.10;;;;;;5036530;28;19966;-59
2023/04/15 11:54:22;;;;;;;;;;;18.90;44.10;;;;;;5036437;28;19928;-59
2023/04/15 11:56:50;;;;;;;;;;;18.90;44.00;;;;;;5039113;28;19925;-59
2023/04/15 11:59:18;;;;;;;;;;;18.90;44.00;;;;;;5037793;28;19920;-59
2023/04/15 12:01:46;;;;;;;;;;;18.90;43.90;;;;;;5037072;28;20298;-59
2023/04/15 12:04:13;;;;;;;;;;;18.90;44.00;;;;;;5038049;28;19927;-59
2023/04/15 12:06:40;;;;;;;;;;;18.90;43.90;;;;;;5038599;28;19921;-59
2023/04/15 12:09:11;;;;;;;;;;;18.90;43.90;;;;;;5055824;28;19997;-59
2023/04/15 12:11:38;;;;;;;;;;;18.90;43.90;;;;;;5038552;28;20012;-59
2023/04/15 12:14:06;;;;;;;;;;;19.00;43.90;;;;;;5036269;28;19928;-59
2023/04/15 12:16:35;;;;;;;;;;;19.00;43.90;;;;;;5055741;28;19928;-59
2023/04/15 12:19:04;;;;;;;;;;;18.90;43.80;;;;;;5036101;28;19975;-59
2023/04/15 12:21:33;;;;;;;;;;;19.00;44.50;;;;;;5037830;28;19936;-59
2023/04/15 12:24:02;;;;;;;;;;;18.90;43.70;;;;;;5055393;28;19921;-59
2023/04/15 12:26:30;;;;;;;;;;;19.00;43.80;;;;;;5038273;28;19928;-60
2023/04/15 12:29:00;;;;;;;;;;;19.00;43.80;;;;;;5053606;28;19920;-59
2023/04/15 12:31:27;;;;;;;;;;;19.00;43.80;;;;;;5038559;28;19960;-59
2023/04/15 12:33:56;;;;;;;;;;;19.00;43.80;;;;;;5035963;28;19920;-59
2023/04/15 12:36:23;;;;;;;;;;;19.00;43.90;;;;;;5038411;28;19921;-59
2023/04/15 12:38:50;;;;;;;;;;;19.00;43.80;;;;;;5053713;28;19924;-59
2023/04/15 12:41:16;;;;;;;;;;;19.00;43.80;;;;;;5035537;28;19927;-59
2023/04/15 12:43:44;;;;;;;;;;;19.00;43.80;;;;;;5054946;28;19925;-59
2023/04/15 12:46:10;;;;;;;;;;;19.00;43.80;;;;;;5053343;28;19925;-59
2023/04/15 12:48:37;;;;;;;;;;;19.00;43.80;;;;;;5035542;28;19954;-59
2023/04/15 12:51:05;;;;;;;;;;;19.00;43.80;;;;;;5037826;28;19982;-59
2023/04/15 12:53:32;;;;;;;;;;;19.00;43.80;;;;;;5037403;28;19924;-59
2023/04/15 12:55:59;;;;;;;;;;;19.10;43.90;;;;;;5049235;28;19921;-59
2023/04/15 12:58:26;;;;;;;;;;;19.00;43.80;;;;;;5051001;28;19967;-59
2023/04/15 13:00:53;;;;;;;;;;;19.00;43.80;;;;;;5052464;28;20027;-59
2023/04/15 13:03:19;;;;;;;;;;;19.00;43.80;;;;;;5054748;28;19964;-59
2023/04/15 13:05:46;;;;;;;;;;;19.00;43.80;;;;;;5054922;28;19928;-59
2023/04/15 13:08:14;;;;;;;;;;;19.00;43.80;;;;;;5053564;28;19986;-59
2023/04/15 13:10:41;;;;;;;;;;;19.00;43.80;;;;;;5053117;28;19920;-59
2023/04/15 13:13:08;;;;;;;;;;;19.00;43.80;;;;;;5052878;28;19921;-59
2023/04/15 13:15:35;;;;;;;;;;;19.00;43.70;;;;;;5053539;28;20335;-59
2023/04/15 13:18:02;;;;;;;;;;;19.00;43.70;;;;;;5051112;28;19947;-59
2023/04/15 13:20:28;;;;;;;;;;;19.10;43.80;;;;;;5052973;28;19920;-59
2023/04/15 13:22:55;;;;;;;;;;;19.00;43.70;;;;;;5037898;28;19944;-59
2023/04/15 13:25:24;;;;;;;;;;;19.10;43.80;;;;;;5036620;28;19964;-59
2023/04/15 13:27:51;;;;;;;;;;;19.00;43.70;;;;;;5036379;28;19928;-58
2023/04/15 13:30:18;;;;;;;;;;;19.00;43.70;;;;;;5034846;28;19935;-58
2023/04/15 13:32:45;;;;;;;;;;;19.10;43.80;;;;;;5036679;28;19921;-58
2023/04/15 13:35:12;;;;;;;;;;;19.10;43.80;;;;;;5036907;28;20007;-58
2023/04/15 13:37:39;;;;;;;;;;;19.10;43.70;;;;;;5034623;28;19924;-58
2023/04/15 13:40:07;;;;;;;;;;;19.00;43.60;;;;;;5033099;28;20283;-58
2023/04/15 13:42:36;;;;;;;;;;;19.10;43.70;;;;;;5034289;28;19976;-58
2023/04/15 13:45:03;;;;;;;;;;;19.00;43.60;;;;;;5032271;28;19925;-57
2023/04/15 13:47:29;;;;;;;;;;;19.00;43.50;;;;;;5052203;28;19921;-59
2023/04/15 13:49:56;;;;;;;;;;;19.10;43.70;;;;;;5050349;28;19944;-59
2023/04/15 13:52:23;;;;;;;;;;;19.00;43.50;;;;;;5043491;28;19967;-59
2023/04/15 13:54:50;;;;;;;;;;;19.10;43.60;;;;;;5032591;28;19921;-59
2023/04/15 13:57:17;;;;;;;;;;;19.00;43.50;;;;;;5038859;28;19960;-59
2023/04/15 13:59:45;;;;;;;;;;;19.10;43.60;;;;;;5032518;28;19921;-58
2023/04/15 14:02:12;;;;;;;;;;;19.00;43.50;;;;;;5052271;28;19921;-59
2023/04/15 14:04:39;;;;;;;;;;;19.10;43.60;;;;;;5049825;28;19963;-59
2023/04/15 14:07:05;;;;;;;;;;;19.00;43.50;;;;;;5048594;28;19995;-58
2023/04/15 14:09:32;;;;;;;;;;;19.00;43.50;;;;;;5025610;28;19920;-59
2023/04/15 14:12:00;;;;;;;;;;;19.00;43.50;;;;;;5033449;28;19921;-59
2023/04/15 14:14:26;;;;;;;;;;;19.10;43.60;;;;;;5023072;28;19927;-58
2023/04/15 14:16:55;;;;;;;;;;;19.00;43.50;;;;;;5032395;28;19925;-58